sensor_id;sensor_type;location;lat;lon;timestamp;P1;durP1;ratioP1;P2;durP2;ratioP2
18526;SDS011;9393;42.158;24.748;2023-02-23T00:00:12;7.17;;;4.40;;
18526;SDS011;9393;42.158;24.748;2023-02-23T00:03:22;9.50;;;4.80;;
18526;SDS011;9393;42.158;24.748;2023-02-23T00:06:26;7.30;;;3.30;;
18526;SDS011;9393;42.158;24.748;2023-02-23T00:09:31;12.43;;;5.17;;
18526;SDS011;9393;42.158;24.748;2023-02-23T00:12:37;10.97;;;5.07;;
18526;SDS011;9393;42.158;24.748;2023-02-23T00:15:42;9.27;;;4.77;;
18526;SDS011;9393;42.158;24.748;2023-02-23T00:18:47;10.17;;;5.43;;
18526;SDS011;9393;42.158;24.748;2023-02-23T00:21:52;8.80;;;4.83;;
18526;SDS011;9393;42.158;24.748;2023-02-23T00:24:59;12.13;;;4.80;;
18526;SDS011;9393;42.158;24.748;2023-02-23T00:28:04;11.63;;;5.13;;
18526;SDS011;9393;42.158;24.748;2023-02-23T00:31:10;9.70;;;5.27;;
18526;SDS011;9393;42.158;24.748;2023-02-23T00:34:14;10.07;;;4.63;;
18526;SDS011;9393;42.158;24.748;2023-02-23T00:37:22;10.30;;;4.70;;
18526;SDS011;9393;42.158;24.748;2023-02-23T00:40:25;15.70;;;4.07;;
18526;SDS011;9393;42.158;24.748;2023-02-23T00:43:32;12.47;;;5.37;;
18526;SDS011;9393;42.158;24.748;2023-02-23T00:46:38;12.67;;;5.40;;
18526;SDS011;9393;42.158;24.748;2023-02-23T00:49:42;12.53;;;5.27;;
18526;SDS011;9393;42.158;24.748;2023-02-23T00:52:47;6.27;;;3.13;;
18526;SDS011;9393;42.158;24.748;2023-02-23T00:55:50;13.67;;;5.70;;
18526;SDS011;9393;42.158;24.748;2023-02-23T00:58:55;11.77;;;5.10;;
18526;SDS011;9393;42.158;24.748;2023-02-23T01:02:01;7.90;;;4.87;;
18526;SDS011;9393;42.158;24.748;2023-02-23T01:05:05;7.67;;;4.93;;
18526;SDS011;9393;42.158;24.748;2023-02-23T01:08:10;8.37;;;4.70;;
18526;SDS011;9393;42.158;24.748;2023-02-23T01:11:17;10.37;;;5.60;;
18526;SDS011;9393;42.158;24.748;2023-02-23T01:14:23;9.37;;;4.90;;
18526;SDS011;9393;42.158;24.748;2023-02-23T01:17:28;10.03;;;5.20;;
18526;SDS011;9393;42.158;24.748;2023-02-23T01:20:32;10.00;;;5.33;;
18526;SDS011;9393;42.158;24.748;2023-02-23T01:23:37;8.83;;;5.00;;
18526;SDS011;9393;42.158;24.748;2023-02-23T01:26:42;9.30;;;6.17;;
18526;SDS011;9393;42.158;24.748;2023-02-23T01:29:47;8.27;;;5.20;;
18526;SDS011;9393;42.158;24.748;2023-02-23T01:32:52;10.70;;;4.90;;
18526;SDS011;9393;42.158;24.748;2023-02-23T01:35:57;13.43;;;4.63;;
18526;SDS011;9393;42.158;24.748;2023-02-23T01:39:00;8.20;;;4.90;;
18526;SDS011;9393;42.158;24.748;2023-02-23T01:42:08;6.90;;;4.60;;
18526;SDS011;9393;42.158;24.748;2023-02-23T01:45:20;7.43;;;4.97;;
18526;SDS011;9393;42.158;24.748;2023-02-23T01:48:30;10.43;;;4.80;;
18526;SDS011;9393;42.158;24.748;2023-02-23T01:51:38;7.77;;;4.50;;
18526;SDS011;9393;42.158;24.748;2023-02-23T01:54:45;7.87;;;4.27;;
18526;SDS011;9393;42.158;24.748;2023-02-23T01:57:53;9.63;;;4.40;;
18526;SDS011;9393;42.158;24.748;2023-02-23T02:01:03;7.50;;;4.47;;
18526;SDS011;9393;42.158;24.748;2023-02-23T02:04:09;8.63;;;4.17;;
18526;SDS011;9393;42.158;24.748;2023-02-23T02:07:18;12.50;;;4.80;;
18526;SDS011;9393;42.158;24.748;2023-02-23T02:10:25;8.77;;;4.00;;
18526;SDS011;9393;42.158;24.748;2023-02-23T02:13:41;10.03;;;4.50;;
18526;SDS011;9393;42.158;24.748;2023-02-23T02:16:47;6.60;;;4.03;;
18526;SDS011;9393;42.158;24.748;2023-02-23T02:20:10;7.13;;;3.90;;
18526;SDS011;9393;42.158;24.748;2023-02-23T02:23:39;12.50;;;4.67;;
18526;SDS011;9393;42.158;24.748;2023-02-23T02:27:12;10.50;;;4.37;;
18526;SDS011;9393;42.158;24.748;2023-02-23T02:30:42;10.13;;;4.03;;
18526;SDS011;9393;42.158;24.748;2023-02-23T02:38:04;6.80;;;4.10;;
18526;SDS011;9393;42.158;24.748;2023-02-23T02:41:19;6.83;;;4.10;;
18526;SDS011;9393;42.158;24.748;2023-02-23T02:44:34;7.03;;;4.10;;
18526;SDS011;9393;42.158;24.748;2023-02-23T02:47:45;7.93;;;3.80;;
18526;SDS011;9393;42.158;24.748;2023-02-23T02:50:59;8.43;;;4.60;;
18526;SDS011;9393;42.158;24.748;2023-02-23T02:54:15;6.37;;;3.60;;
18526;SDS011;9393;42.158;24.748;2023-02-23T02:57:26;9.30;;;4.27;;
18526;SDS011;9393;42.158;24.748;2023-02-23T03:00:36;7.97;;;3.33;;
18526;SDS011;9393;42.158;24.748;2023-02-23T03:03:59;7.70;;;3.77;;
18526;SDS011;9393;42.158;24.748;2023-02-23T03:07:25;9.27;;;4.23;;
18526;SDS011;9393;42.158;24.748;2023-02-23T03:10:56;12.17;;;4.20;;
18526;SDS011;9393;42.158;24.748;2023-02-23T03:14:24;8.43;;;4.40;;
18526;SDS011;9393;42.158;24.748;2023-02-23T03:17:54;11.27;;;4.47;;
18526;SDS011;9393;42.158;24.748;2023-02-23T03:21:23;7.87;;;4.70;;
18526;SDS011;9393;42.158;24.748;2023-02-23T03:24:49;10.47;;;4.43;;
18526;SDS011;9393;42.158;24.748;2023-02-23T03:28:19;11.77;;;5.10;;
18526;SDS011;9393;42.158;24.748;2023-02-23T03:31:45;7.37;;;4.50;;
18526;SDS011;9393;42.158;24.748;2023-02-23T03:35:11;9.67;;;4.30;;
18526;SDS011;9393;42.158;24.748;2023-02-23T03:38:38;12.20;;;4.50;;
18526;SDS011;9393;42.158;24.748;2023-02-23T03:42:05;9.40;;;4.70;;
18526;SDS011;9393;42.158;24.748;2023-02-23T03:45:31;12.20;;;5.03;;
18526;SDS011;9393;42.158;24.748;2023-02-23T03:48:52;10.80;;;5.10;;
18526;SDS011;9393;42.158;24.748;2023-02-23T03:52:19;10.40;;;5.40;;
18526;SDS011;9393;42.158;24.748;2023-02-23T03:55:44;13.20;;;5.70;;
18526;SDS011;9393;42.158;24.748;2023-02-23T03:59:15;11.83;;;5.37;;
18526;SDS011;9393;42.158;24.748;2023-02-23T04:02:43;15.40;;;6.70;;
18526;SDS011;9393;42.158;24.748;2023-02-23T04:06:06;14.37;;;6.93;;
18526;SDS011;9393;42.158;24.748;2023-02-23T04:09:30;19.67;;;8.60;;
18526;SDS011;9393;42.158;24.748;2023-02-23T04:12:53;16.27;;;8.50;;
18526;SDS011;9393;42.158;24.748;2023-02-23T04:16:16;21.87;;;8.43;;
18526;SDS011;9393;42.158;24.748;2023-02-23T04:19:21;15.83;;;7.97;;
18526;SDS011;9393;42.158;24.748;2023-02-23T04:22:25;17.67;;;7.33;;
18526;SDS011;9393;42.158;24.748;2023-02-23T04:25:29;12.70;;;7.10;;
18526;SDS011;9393;42.158;24.748;2023-02-23T04:28:33;12.13;;;6.60;;
18526;SDS011;9393;42.158;24.748;2023-02-23T04:31:37;12.93;;;6.83;;
18526;SDS011;9393;42.158;24.748;2023-02-23T04:34:44;14.10;;;6.73;;
18526;SDS011;9393;42.158;24.748;2023-02-23T04:37:47;18.33;;;7.33;;
18526;SDS011;9393;42.158;24.748;2023-02-23T04:40:51;15.30;;;8.10;;
18526;SDS011;9393;42.158;24.748;2023-02-23T04:43:54;18.03;;;9.40;;
18526;SDS011;9393;42.158;24.748;2023-02-23T04:46:58;21.23;;;9.27;;
18526;SDS011;9393;42.158;24.748;2023-02-23T04:50:03;18.43;;;8.80;;
18526;SDS011;9393;42.158;24.748;2023-02-23T04:53:08;17.77;;;8.53;;
18526;SDS011;9393;42.158;24.748;2023-02-23T04:56:12;19.43;;;8.93;;
18526;SDS011;9393;42.158;24.748;2023-02-23T04:59:16;16.90;;;8.13;;
18526;SDS011;9393;42.158;24.748;2023-02-23T05:02:19;14.67;;;7.90;;
18526;SDS011;9393;42.158;24.748;2023-02-23T05:05:25;16.03;;;7.60;;
18526;SDS011;9393;42.158;24.748;2023-02-23T05:08:29;12.47;;;7.43;;
18526;SDS011;9393;42.158;24.748;2023-02-23T05:11:33;16.43;;;8.23;;
18526;SDS011;9393;42.158;24.748;2023-02-23T05:14:36;15.43;;;7.87;;
18526;SDS011;9393;42.158;24.748;2023-02-23T05:17:40;16.03;;;8.30;;
18526;SDS011;9393;42.158;24.748;2023-02-23T05:20:46;14.83;;;7.83;;
18526;SDS011;9393;42.158;24.748;2023-02-23T05:23:50;15.27;;;8.20;;
18526;SDS011;9393;42.158;24.748;2023-02-23T05:26:53;20.27;;;8.53;;
18526;SDS011;9393;42.158;24.748;2023-02-23T05:29:57;16.73;;;8.77;;
18526;SDS011;9393;42.158;24.748;2023-02-23T05:33:02;16.90;;;9.70;;
18526;SDS011;9393;42.158;24.748;2023-02-23T05:36:08;22.97;;;11.03;;
18526;SDS011;9393;42.158;24.748;2023-02-23T05:39:13;21.77;;;10.07;;
18526;SDS011;9393;42.158;24.748;2023-02-23T05:42:17;25.13;;;10.80;;
18526;SDS011;9393;42.158;24.748;2023-02-23T05:45:21;22.73;;;11.43;;
18526;SDS011;9393;42.158;24.748;2023-02-23T05:48:25;23.47;;;11.70;;
18526;SDS011;9393;42.158;24.748;2023-02-23T05:51:31;25.03;;;11.17;;
18526;SDS011;9393;42.158;24.748;2023-02-23T05:54:38;28.13;;;10.27;;
18526;SDS011;9393;42.158;24.748;2023-02-23T05:57:42;28.90;;;12.33;;
18526;SDS011;9393;42.158;24.748;2023-02-23T06:00:46;26.57;;;12.57;;
18526;SDS011;9393;42.158;24.748;2023-02-23T06:03:50;27.30;;;13.93;;
18526;SDS011;9393;42.158;24.748;2023-02-23T06:06:55;24.03;;;11.73;;
18526;SDS011;9393;42.158;24.748;2023-02-23T06:09:59;21.43;;;9.43;;
18526;SDS011;9393;42.158;24.748;2023-02-23T06:13:03;20.40;;;9.17;;
18526;SDS011;9393;42.158;24.748;2023-02-23T06:16:07;18.37;;;9.00;;
18526;SDS011;9393;42.158;24.748;2023-02-23T06:19:12;26.70;;;10.27;;
18526;SDS011;9393;42.158;24.748;2023-02-23T06:22:17;12.77;;;7.90;;
18526;SDS011;9393;42.158;24.748;2023-02-23T06:25:21;13.47;;;8.60;;
18526;SDS011;9393;42.158;24.748;2023-02-23T06:28:26;30.43;;;14.67;;
18526;SDS011;9393;42.158;24.748;2023-02-23T06:31:30;35.40;;;17.33;;
18526;SDS011;9393;42.158;24.748;2023-02-23T06:34:35;29.10;;;16.10;;
18526;SDS011;9393;42.158;24.748;2023-02-23T06:37:40;36.40;;;17.73;;
18526;SDS011;9393;42.158;24.748;2023-02-23T06:40:44;35.63;;;18.20;;
18526;SDS011;9393;42.158;24.748;2023-02-23T06:43:49;29.43;;;16.30;;
18526;SDS011;9393;42.158;24.748;2023-02-23T06:46:53;42.43;;;17.30;;
18526;SDS011;9393;42.158;24.748;2023-02-23T06:49:57;33.43;;;16.07;;
18526;SDS011;9393;42.158;24.748;2023-02-23T06:53:04;31.80;;;16.23;;
18526;SDS011;9393;42.158;24.748;2023-02-23T06:56:08;34.17;;;16.87;;
18526;SDS011;9393;42.158;24.748;2023-02-23T06:59:13;32.50;;;15.07;;
18526;SDS011;9393;42.158;24.748;2023-02-23T07:02:17;28.73;;;14.47;;
18526;SDS011;9393;42.158;24.748;2023-02-23T07:05:21;27.47;;;12.53;;
18526;SDS011;9393;42.158;24.748;2023-02-23T07:08:27;28.43;;;13.50;;
18526;SDS011;9393;42.158;24.748;2023-02-23T07:11:31;23.43;;;12.13;;
18526;SDS011;9393;42.158;24.748;2023-02-23T07:14:35;19.57;;;9.47;;
18526;SDS011;9393;42.158;24.748;2023-02-23T07:17:39;18.07;;;9.63;;
18526;SDS011;9393;42.158;24.748;2023-02-23T07:20:43;27.00;;;10.23;;
18526;SDS011;9393;42.158;24.748;2023-02-23T07:23:49;19.93;;;9.03;;
18526;SDS011;9393;42.158;24.748;2023-02-23T07:26:53;28.33;;;8.00;;
18526;SDS011;9393;42.158;24.748;2023-02-23T07:29:57;18.23;;;8.00;;
18526;SDS011;9393;42.158;24.748;2023-02-23T07:33:01;16.27;;;6.90;;
18526;SDS011;9393;42.158;24.748;2023-02-23T07:36:05;15.23;;;6.83;;
18526;SDS011;9393;42.158;24.748;2023-02-23T07:39:12;13.33;;;5.50;;
18526;SDS011;9393;42.158;24.748;2023-02-23T07:42:16;9.13;;;4.93;;
18526;SDS011;9393;42.158;24.748;2023-02-23T07:45:20;17.70;;;7.00;;
18526;SDS011;9393;42.158;24.748;2023-02-23T07:48:25;11.73;;;5.73;;
18526;SDS011;9393;42.158;24.748;2023-02-23T07:51:29;11.00;;;5.20;;
18526;SDS011;9393;42.158;24.748;2023-02-23T07:54:35;11.20;;;5.00;;
18526;SDS011;9393;42.158;24.748;2023-02-23T07:57:39;14.10;;;5.87;;
18526;SDS011;9393;42.158;24.748;2023-02-23T08:00:43;13.83;;;5.07;;
18526;SDS011;9393;42.158;24.748;2023-02-23T08:03:47;11.70;;;4.73;;
18526;SDS011;9393;42.158;24.748;2023-02-23T08:06:51;7.87;;;4.23;;
18526;SDS011;9393;42.158;24.748;2023-02-23T08:09:57;10.43;;;4.17;;
18526;SDS011;9393;42.158;24.748;2023-02-23T08:13:01;10.33;;;5.47;;
18526;SDS011;9393;42.158;24.748;2023-02-23T08:16:05;8.57;;;4.40;;
18526;SDS011;9393;42.158;24.748;2023-02-23T08:19:10;11.47;;;4.53;;
18526;SDS011;9393;42.158;24.748;2023-02-23T08:22:14;8.63;;;4.43;;
18526;SDS011;9393;42.158;24.748;2023-02-23T08:25:20;12.37;;;4.90;;
18526;SDS011;9393;42.158;24.748;2023-02-23T08:28:24;8.43;;;4.70;;
18526;SDS011;9393;42.158;24.748;2023-02-23T08:31:29;8.07;;;4.67;;
18526;SDS011;9393;42.158;24.748;2023-02-23T08:34:35;10.37;;;4.70;;
18526;SDS011;9393;42.158;24.748;2023-02-23T08:37:41;12.80;;;6.70;;
18526;SDS011;9393;42.158;24.748;2023-02-23T08:40:47;15.13;;;5.87;;
18526;SDS011;9393;42.158;24.748;2023-02-23T08:43:51;28.47;;;14.73;;
18526;SDS011;9393;42.158;24.748;2023-02-23T08:46:55;9.20;;;5.33;;
18526;SDS011;9393;42.158;24.748;2023-02-23T08:50:00;9.87;;;5.13;;
18526;SDS011;9393;42.158;24.748;2023-02-23T08:53:04;8.50;;;4.60;;
18526;SDS011;9393;42.158;24.748;2023-02-23T08:56:10;8.37;;;4.60;;
18526;SDS011;9393;42.158;24.748;2023-02-23T08:59:16;12.50;;;5.60;;
18526;SDS011;9393;42.158;24.748;2023-02-23T09:02:20;13.33;;;5.23;;
18526;SDS011;9393;42.158;24.748;2023-02-23T09:05:24;8.80;;;4.70;;
18526;SDS011;9393;42.158;24.748;2023-02-23T09:08:28;11.37;;;4.87;;
18526;SDS011;9393;42.158;24.748;2023-02-23T09:11:34;8.50;;;4.27;;
18526;SDS011;9393;42.158;24.748;2023-02-23T09:14:38;9.03;;;4.80;;
18526;SDS011;9393;42.158;24.748;2023-02-23T09:17:42;10.47;;;4.73;;
18526;SDS011;9393;42.158;24.748;2023-02-23T09:20:46;7.97;;;4.53;;
18526;SDS011;9393;42.158;24.748;2023-02-23T09:23:50;10.40;;;5.20;;
18526;SDS011;9393;42.158;24.748;2023-02-23T09:26:58;8.93;;;5.10;;
18526;SDS011;9393;42.158;24.748;2023-02-23T09:30:02;9.30;;;5.13;;
18526;SDS011;9393;42.158;24.748;2023-02-23T09:33:07;11.87;;;4.63;;
18526;SDS011;9393;42.158;24.748;2023-02-23T09:36:12;11.50;;;4.90;;
18526;SDS011;9393;42.158;24.748;2023-02-23T09:39:17;8.17;;;4.97;;
18526;SDS011;9393;42.158;24.748;2023-02-23T09:42:38;12.53;;;5.00;;
18526;SDS011;9393;42.158;24.748;2023-02-23T09:45:51;9.93;;;5.30;;
18526;SDS011;9393;42.158;24.748;2023-02-23T09:49:03;8.43;;;4.30;;
18526;SDS011;9393;42.158;24.748;2023-02-23T09:52:15;9.97;;;4.43;;
18526;SDS011;9393;42.158;24.748;2023-02-23T09:55:21;9.37;;;5.13;;
18526;SDS011;9393;42.158;24.748;2023-02-23T09:58:28;9.93;;;4.70;;
18526;SDS011;9393;42.158;24.748;2023-02-23T10:01:44;9.90;;;4.50;;
18526;SDS011;9393;42.158;24.748;2023-02-23T10:04:59;12.47;;;4.87;;
18526;SDS011;9393;42.158;24.748;2023-02-23T10:08:07;8.17;;;4.37;;
18526;SDS011;9393;42.158;24.748;2023-02-23T10:11:23;8.57;;;4.30;;
18526;SDS011;9393;42.158;24.748;2023-02-23T10:18:05;9.37;;;4.57;;
18526;SDS011;9393;42.158;24.748;2023-02-23T10:21:20;10.67;;;6.37;;
18526;SDS011;9393;42.158;24.748;2023-02-23T10:24:34;12.43;;;5.80;;
18526;SDS011;9393;42.158;24.748;2023-02-23T10:27:43;9.53;;;5.90;;
18526;SDS011;9393;42.158;24.748;2023-02-23T10:30:51;7.73;;;4.37;;
18526;SDS011;9393;42.158;24.748;2023-02-23T10:33:58;8.40;;;4.67;;
18526;SDS011;9393;42.158;24.748;2023-02-23T10:37:08;13.43;;;5.30;;
18526;SDS011;9393;42.158;24.748;2023-02-23T10:40:14;9.23;;;5.23;;
18526;SDS011;9393;42.158;24.748;2023-02-23T10:43:21;11.30;;;5.90;;
18526;SDS011;9393;42.158;24.748;2023-02-23T10:46:28;12.27;;;5.93;;
18526;SDS011;9393;42.158;24.748;2023-02-23T10:49:39;10.10;;;5.60;;
18526;SDS011;9393;42.158;24.748;2023-02-23T10:52:45;10.90;;;5.43;;
18526;SDS011;9393;42.158;24.748;2023-02-23T10:56:04;11.23;;;5.30;;
18526;SDS011;9393;42.158;24.748;2023-02-23T10:59:14;13.57;;;5.90;;
18526;SDS011;9393;42.158;24.748;2023-02-23T11:02:23;12.10;;;6.40;;
18526;SDS011;9393;42.158;24.748;2023-02-23T11:05:31;10.63;;;6.03;;
18526;SDS011;9393;42.158;24.748;2023-02-23T11:08:36;13.03;;;6.40;;
18526;SDS011;9393;42.158;24.748;2023-02-23T11:11:42;8.77;;;5.73;;
18526;SDS011;9393;42.158;24.748;2023-02-23T11:14:59;11.53;;;6.00;;
18526;SDS011;9393;42.158;24.748;2023-02-23T11:18:49;11.33;;;5.77;;
18526;SDS011;9393;42.158;24.748;2023-02-23T11:21:56;10.17;;;5.80;;
18526;SDS011;9393;42.158;24.748;2023-02-23T11:25:00;9.63;;;5.47;;
18526;SDS011;9393;42.158;24.748;2023-02-23T11:28:15;15.07;;;6.53;;
18526;SDS011;9393;42.158;24.748;2023-02-23T11:31:22;12.57;;;6.33;;
18526;SDS011;9393;42.158;24.748;2023-02-23T11:34:35;10.23;;;6.63;;
18526;SDS011;9393;42.158;24.748;2023-02-23T11:37:42;11.83;;;5.90;;
18526;SDS011;9393;42.158;24.748;2023-02-23T11:40:56;9.73;;;5.23;;
18526;SDS011;9393;42.158;24.748;2023-02-23T11:44:02;9.77;;;5.10;;
18526;SDS011;9393;42.158;24.748;2023-02-23T11:47:12;11.07;;;5.17;;
18526;SDS011;9393;42.158;24.748;2023-02-23T11:50:26;9.07;;;5.77;;
18526;SDS011;9393;42.158;24.748;2023-02-23T11:53:33;11.13;;;5.80;;
18526;SDS011;9393;42.158;24.748;2023-02-23T11:56:39;10.53;;;5.43;;
18526;SDS011;9393;42.158;24.748;2023-02-23T11:59:43;7.10;;;4.70;;
18526;SDS011;9393;42.158;24.748;2023-02-23T12:02:49;11.47;;;5.00;;
18526;SDS011;9393;42.158;24.748;2023-02-23T12:05:59;12.20;;;5.90;;
18526;SDS011;9393;42.158;24.748;2023-02-23T12:09:05;11.27;;;5.33;;
18526;SDS011;9393;42.158;24.748;2023-02-23T12:12:19;8.17;;;5.40;;
18526;SDS011;9393;42.158;24.748;2023-02-23T12:15:30;10.30;;;5.87;;
18526;SDS011;9393;42.158;24.748;2023-02-23T12:18:42;14.70;;;5.70;;
18526;SDS011;9393;42.158;24.748;2023-02-23T12:21:55;15.33;;;7.13;;
18526;SDS011;9393;42.158;24.748;2023-02-23T12:25:05;13.37;;;7.20;;
18526;SDS011;9393;42.158;24.748;2023-02-23T12:28:19;17.67;;;8.80;;
18526;SDS011;9393;42.158;24.748;2023-02-23T12:31:33;16.07;;;9.97;;
18526;SDS011;9393;42.158;24.748;2023-02-23T12:34:46;14.00;;;7.93;;
18526;SDS011;9393;42.158;24.748;2023-02-23T12:37:57;21.27;;;11.53;;
18526;SDS011;9393;42.158;24.748;2023-02-23T12:41:09;20.57;;;11.70;;
18526;SDS011;9393;42.158;24.748;2023-02-23T12:44:18;26.23;;;12.60;;
18526;SDS011;9393;42.158;24.748;2023-02-23T12:47:33;23.07;;;12.43;;
18526;SDS011;9393;42.158;24.748;2023-02-23T12:50:41;25.13;;;12.57;;
18526;SDS011;9393;42.158;24.748;2023-02-23T12:53:54;25.63;;;14.20;;
18526;SDS011;9393;42.158;24.748;2023-02-23T12:57:00;26.60;;;14.20;;
18526;SDS011;9393;42.158;24.748;2023-02-23T13:07:28;26.23;;;14.77;;
18526;SDS011;9393;42.158;24.748;2023-02-23T13:10:44;22.70;;;12.57;;
18526;SDS011;9393;42.158;24.748;2023-02-23T13:13:55;27.77;;;15.10;;
18526;SDS011;9393;42.158;24.748;2023-02-23T13:17:04;23.60;;;14.63;;
18526;SDS011;9393;42.158;24.748;2023-02-23T13:20:21;28.53;;;12.87;;
18526;SDS011;9393;42.158;24.748;2023-02-23T13:23:35;27.87;;;14.50;;
18526;SDS011;9393;42.158;24.748;2023-02-23T13:26:46;24.20;;;13.27;;
18526;SDS011;9393;42.158;24.748;2023-02-23T13:29:56;29.00;;;15.90;;
18526;SDS011;9393;42.158;24.748;2023-02-23T13:33:01;23.60;;;13.50;;
18526;SDS011;9393;42.158;24.748;2023-02-23T13:36:13;27.23;;;13.40;;
18526;SDS011;9393;42.158;24.748;2023-02-23T13:39:27;23.10;;;13.67;;
18526;SDS011;9393;42.158;24.748;2023-02-23T13:42:54;24.17;;;13.30;;
18526;SDS011;9393;42.158;24.748;2023-02-23T13:46:16;21.23;;;14.03;;
18526;SDS011;9393;42.158;24.748;2023-02-23T13:49:32;26.70;;;15.47;;
18526;SDS011;9393;42.158;24.748;2023-02-23T13:52:40;26.77;;;13.00;;
18526;SDS011;9393;42.158;24.748;2023-02-23T13:55:46;23.33;;;13.97;;
18526;SDS011;9393;42.158;24.748;2023-02-23T13:58:54;22.43;;;14.20;;
18526;SDS011;9393;42.158;24.748;2023-02-23T14:02:05;24.93;;;14.40;;
18526;SDS011;9393;42.158;24.748;2023-02-23T14:05:40;20.70;;;13.33;;
18526;SDS011;9393;42.158;24.748;2023-02-23T14:08:50;25.57;;;12.03;;
18526;SDS011;9393;42.158;24.748;2023-02-23T14:12:02;22.53;;;12.63;;
18526;SDS011;9393;42.158;24.748;2023-02-23T14:15:39;24.47;;;13.90;;
18526;SDS011;9393;42.158;24.748;2023-02-23T14:18:52;23.00;;;14.33;;
18526;SDS011;9393;42.158;24.748;2023-02-23T14:22:08;27.27;;;14.40;;
18526;SDS011;9393;42.158;24.748;2023-02-23T14:32:27;25.93;;;15.33;;
18526;SDS011;9393;42.158;24.748;2023-02-23T14:35:43;25.03;;;12.27;;
18526;SDS011;9393;42.158;24.748;2023-02-23T14:38:50;26.17;;;14.27;;
18526;SDS011;9393;42.158;24.748;2023-02-23T14:42:02;23.03;;;14.27;;
18526;SDS011;9393;42.158;24.748;2023-02-23T14:45:15;25.27;;;14.67;;
18526;SDS011;9393;42.158;24.748;2023-02-23T14:48:23;26.90;;;15.53;;
18526;SDS011;9393;42.158;24.748;2023-02-23T14:51:30;22.60;;;14.33;;
18526;SDS011;9393;42.158;24.748;2023-02-23T14:54:43;27.37;;;14.90;;
18526;SDS011;9393;42.158;24.748;2023-02-23T14:57:47;23.83;;;14.80;;
18526;SDS011;9393;42.158;24.748;2023-02-23T15:00:53;25.43;;;14.07;;
18526;SDS011;9393;42.158;24.748;2023-02-23T15:04:05;25.27;;;15.50;;
18526;SDS011;9393;42.158;24.748;2023-02-23T15:07:13;25.43;;;15.50;;
18526;SDS011;9393;42.158;24.748;2023-02-23T15:10:21;26.00;;;14.63;;
18526;SDS011;9393;42.158;24.748;2023-02-23T15:13:30;30.30;;;18.03;;
18526;SDS011;9393;42.158;24.748;2023-02-23T15:16:35;24.23;;;15.27;;
18526;SDS011;9393;42.158;24.748;2023-02-23T15:19:41;26.10;;;15.57;;
18526;SDS011;9393;42.158;24.748;2023-02-23T15:22:46;24.03;;;14.70;;
18526;SDS011;9393;42.158;24.748;2023-02-23T15:25:56;27.93;;;16.00;;
18526;SDS011;9393;42.158;24.748;2023-02-23T15:29:04;27.60;;;16.93;;
18526;SDS011;9393;42.158;24.748;2023-02-23T15:32:17;30.33;;;17.80;;
18526;SDS011;9393;42.158;24.748;2023-02-23T15:35:24;33.57;;;17.13;;
18526;SDS011;9393;42.158;24.748;2023-02-23T15:38:30;31.27;;;16.47;;
18526;SDS011;9393;42.158;24.748;2023-02-23T15:41:44;31.27;;;17.40;;
18526;SDS011;9393;42.158;24.748;2023-02-23T15:44:57;31.20;;;16.00;;
18526;SDS011;9393;42.158;24.748;2023-02-23T15:48:03;27.87;;;15.00;;
18526;SDS011;9393;42.158;24.748;2023-02-23T15:51:18;29.10;;;17.17;;
18526;SDS011;9393;42.158;24.748;2023-02-23T15:54:26;40.57;;;17.20;;
18526;SDS011;9393;42.158;24.748;2023-02-23T15:57:33;44.30;;;19.73;;
18526;SDS011;9393;42.158;24.748;2023-02-23T16:00:49;29.10;;;16.03;;
18526;SDS011;9393;42.158;24.748;2023-02-23T16:04:01;34.00;;;19.27;;
18526;SDS011;9393;42.158;24.748;2023-02-23T16:07:16;25.23;;;15.17;;
18526;SDS011;9393;42.158;24.748;2023-02-23T16:10:22;28.93;;;16.07;;
18526;SDS011;9393;42.158;24.748;2023-02-23T16:13:30;28.10;;;17.50;;
18526;SDS011;9393;42.158;24.748;2023-02-23T16:16:34;30.60;;;18.03;;
18526;SDS011;9393;42.158;24.748;2023-02-23T16:19:38;30.77;;;18.63;;
18526;SDS011;9393;42.158;24.748;2023-02-23T16:22:44;34.70;;;18.67;;
18526;SDS011;9393;42.158;24.748;2023-02-23T16:25:56;33.57;;;19.97;;
18526;SDS011;9393;42.158;24.748;2023-02-23T16:29:08;32.43;;;19.23;;
18526;SDS011;9393;42.158;24.748;2023-02-23T16:32:20;39.30;;;19.60;;
18526;SDS011;9393;42.158;24.748;2023-02-23T16:35:32;34.80;;;21.90;;
18526;SDS011;9393;42.158;24.748;2023-02-23T16:38:41;38.03;;;22.40;;
18526;SDS011;9393;42.158;24.748;2023-02-23T16:41:50;33.33;;;19.57;;
18526;SDS011;9393;42.158;24.748;2023-02-23T16:44:54;37.27;;;18.63;;
18526;SDS011;9393;42.158;24.748;2023-02-23T16:47:59;31.07;;;19.43;;
18526;SDS011;9393;42.158;24.748;2023-02-23T16:51:07;28.73;;;16.70;;
18526;SDS011;9393;42.158;24.748;2023-02-23T16:54:17;31.10;;;18.63;;
18526;SDS011;9393;42.158;24.748;2023-02-23T16:57:22;27.93;;;18.27;;
18526;SDS011;9393;42.158;24.748;2023-02-23T17:00:30;31.60;;;18.83;;
18526;SDS011;9393;42.158;24.748;2023-02-23T17:03:35;32.57;;;18.00;;
18526;SDS011;9393;42.158;24.748;2023-02-23T17:06:52;32.00;;;18.60;;
18526;SDS011;9393;42.158;24.748;2023-02-23T17:10:00;37.40;;;19.77;;
18526;SDS011;9393;42.158;24.748;2023-02-23T17:13:04;29.30;;;18.73;;
18526;SDS011;9393;42.158;24.748;2023-02-23T17:16:10;32.40;;;20.17;;
18526;SDS011;9393;42.158;24.748;2023-02-23T17:19:15;30.43;;;16.20;;
18526;SDS011;9393;42.158;24.748;2023-02-23T17:22:19;37.83;;;19.40;;
18526;SDS011;9393;42.158;24.748;2023-02-23T17:25:25;32.90;;;20.20;;
18526;SDS011;9393;42.158;24.748;2023-02-23T17:28:29;30.60;;;17.73;;
18526;SDS011;9393;42.158;24.748;2023-02-23T17:31:33;34.13;;;16.37;;
18526;SDS011;9393;42.158;24.748;2023-02-23T17:34:39;24.93;;;13.90;;
18526;SDS011;9393;42.158;24.748;2023-02-23T17:37:43;26.80;;;14.33;;
18526;SDS011;9393;42.158;24.748;2023-02-23T17:40:48;26.03;;;14.10;;
18526;SDS011;9393;42.158;24.748;2023-02-23T17:43:52;30.57;;;13.23;;
18526;SDS011;9393;42.158;24.748;2023-02-23T17:46:56;24.57;;;13.50;;
18526;SDS011;9393;42.158;24.748;2023-02-23T17:50:00;20.27;;;11.23;;
18526;SDS011;9393;42.158;24.748;2023-02-23T17:53:05;20.50;;;11.07;;
18526;SDS011;9393;42.158;24.748;2023-02-23T17:56:10;17.67;;;10.30;;
18526;SDS011;9393;42.158;24.748;2023-02-23T17:59:14;18.07;;;10.03;;
18526;SDS011;9393;42.158;24.748;2023-02-23T18:02:19;19.50;;;9.87;;
18526;SDS011;9393;42.158;24.748;2023-02-23T18:05:23;17.20;;;9.10;;
18526;SDS011;9393;42.158;24.748;2023-02-23T18:08:27;15.27;;;7.57;;
18526;SDS011;9393;42.158;24.748;2023-02-23T18:11:33;15.63;;;8.60;;
18526;SDS011;9393;42.158;24.748;2023-02-23T18:14:37;19.23;;;7.57;;
18526;SDS011;9393;42.158;24.748;2023-02-23T18:17:41;18.60;;;7.60;;
18526;SDS011;9393;42.158;24.748;2023-02-23T18:20:49;17.97;;;8.43;;
18526;SDS011;9393;42.158;24.748;2023-02-23T18:23:53;16.60;;;8.10;;
18526;SDS011;9393;42.158;24.748;2023-02-23T18:26:59;12.27;;;6.30;;
18526;SDS011;9393;42.158;24.748;2023-02-23T18:30:03;17.40;;;8.27;;
18526;SDS011;9393;42.158;24.748;2023-02-23T18:33:08;14.43;;;6.03;;
18526;SDS011;9393;42.158;24.748;2023-02-23T18:36:15;12.23;;;5.93;;
18526;SDS011;9393;42.158;24.748;2023-02-23T18:39:20;12.87;;;5.90;;
18526;SDS011;9393;42.158;24.748;2023-02-23T18:42:26;16.97;;;6.63;;
18526;SDS011;9393;42.158;24.748;2023-02-23T18:45:30;12.60;;;5.40;;
18526;SDS011;9393;42.158;24.748;2023-02-23T18:48:34;10.33;;;5.60;;
18526;SDS011;9393;42.158;24.748;2023-02-23T18:51:38;13.93;;;4.93;;
18526;SDS011;9393;42.158;24.748;2023-02-23T18:54:43;8.63;;;4.50;;
18526;SDS011;9393;42.158;24.748;2023-02-23T18:57:49;14.83;;;4.87;;
18526;SDS011;9393;42.158;24.748;2023-02-23T19:00:54;12.67;;;4.90;;